Weather at Madhubani Airport

Public forecast

Using degrees Celsius for public forecast. Weather courtesy of forecast.io.

Closest aviation weather report (METAR) to Madhubani Airport

Closest report is Lok Nayak Jayaprakash Airport, 68.7 nm (127.2 km) SW. Retrieved 2020/09/22 23:30 UTC (0 seconds ago):

VEPT 222330Z 11008KT 2500 BR FEW010 SCT015 FEW030CB BKN090 25/23 Q1000 NOSIG

Closest aviation forecast (TAF) to Madhubani Airport

Closest forecast is Lok Nayak Jayaprakash Airport, 68.7 nm (127.2 km) SW. Retrieved 2020/09/22 18:51 UTC (4 hours ago):

TAF VEPT 221700Z 2218/2324 09008KT 3000 -RA HZ SCT015 FEW030CB BKN100 TEMPO 2219/2223 1500 TSRA SCT015 FEW025CB OVC090 BECMG 2223/2301 2000 -RA BR BECMG 2303/2305 3500 -RA HZ TEMPO 2306/2310 1500 TSRA SCT015 FEW025CB OVC090 BECMG 2322/2324 2000 -RA BR